sensor_id;sensor_type;location;lat;lon;timestamp;temperature;humidity
37594;DHT22;23441;50.856;6.076;2022-11-20T00:01:10;3.40;99.90
37594;DHT22;23441;50.856;6.076;2022-11-20T00:03:37;3.50;99.90
37594;DHT22;23441;50.856;6.076;2022-11-20T00:06:05;3.40;99.90
37594;DHT22;23441;50.856;6.076;2022-11-20T00:08:31;3.50;99.90
37594;DHT22;23441;50.856;6.076;2022-11-20T00:10:57;3.50;99.90
37594;DHT22;23441;50.856;6.076;2022-11-20T00:13:23;3.50;99.90
37594;DHT22;23441;50.856;6.076;2022-11-20T00:15:56;3.50;99.90
37594;DHT22;23441;50.856;6.076;2022-11-20T00:18:21;3.60;99.90
37594;DHT22;23441;50.856;6.076;2022-11-20T00:20:47;3.50;99.90
37594;DHT22;23441;50.856;6.076;2022-11-20T00:23:13;3.60;99.90
37594;DHT22;23441;50.856;6.076;2022-11-20T00:25:39;3.50;99.90
37594;DHT22;23441;50.856;6.076;2022-11-20T00:28:04;3.50;99.90
37594;DHT22;23441;50.856;6.076;2022-11-20T00:30:30;3.60;99.90
37594;DHT22;23441;50.856;6.076;2022-11-20T00:32:56;3.60;99.90
37594;DHT22;23441;50.856;6.076;2022-11-20T00:35:23;3.60;99.90
37594;DHT22;23441;50.856;6.076;2022-11-20T00:37:49;3.70;99.90
37594;DHT22;23441;50.856;6.076;2022-11-20T00:40:15;3.70;99.90
37594;DHT22;23441;50.856;6.076;2022-11-20T00:42:41;3.70;99.90
37594;DHT22;23441;50.856;6.076;2022-11-20T00:45:07;3.80;99.90
37594;DHT22;23441;50.856;6.076;2022-11-20T00:47:33;3.80;99.90
37594;DHT22;23441;50.856;6.076;2022-11-20T00:49:59;3.80;99.90
37594;DHT22;23441;50.856;6.076;2022-11-20T00:52:24;3.80;99.90
37594;DHT22;23441;50.856;6.076;2022-11-20T00:54:50;3.80;99.90
37594;DHT22;23441;50.856;6.076;2022-11-20T00:57:16;3.70;99.90
37594;DHT22;23441;50.856;6.076;2022-11-20T00:59:42;3.70;99.90
37594;DHT22;23441;50.856;6.076;2022-11-20T01:02:07;3.70;99.90
37594;DHT22;23441;50.856;6.076;2022-11-20T01:04:33;3.70;99.90
37594;DHT22;23441;50.856;6.076;2022-11-20T01:06:59;3.70;99.90
37594;DHT22;23441;50.856;6.076;2022-11-20T01:09:25;3.70;99.90
37594;DHT22;23441;50.856;6.076;2022-11-20T01:11:50;3.70;99.90
37594;DHT22;23441;50.856;6.076;2022-11-20T01:14:18;3.70;99.90
37594;DHT22;23441;50.856;6.076;2022-11-20T01:16:48;3.70;99.90
37594;DHT22;23441;50.856;6.076;2022-11-20T01:19:20;3.70;99.90
37594;DHT22;23441;50.856;6.076;2022-11-20T01:21:52;3.80;99.90
37594;DHT22;23441;50.856;6.076;2022-11-20T01:24:20;3.70;99.90
37594;DHT22;23441;50.856;6.076;2022-11-20T01:26:48;3.70;99.90
37594;DHT22;23441;50.856;6.076;2022-11-20T01:29:18;3.70;99.90
37594;DHT22;23441;50.856;6.076;2022-11-20T01:31:44;3.70;99.90
37594;DHT22;23441;50.856;6.076;2022-11-20T01:34:12;3.60;99.90
37594;DHT22;23441;50.856;6.076;2022-11-20T01:36:39;3.70;99.90
37594;DHT22;23441;50.856;6.076;2022-11-20T01:39:10;3.60;99.90
37594;DHT22;23441;50.856;6.076;2022-11-20T01:41:36;3.60;99.90
37594;DHT22;23441;50.856;6.076;2022-11-20T01:44:39;3.60;99.90
37594;DHT22;23441;50.856;6.076;2022-11-20T01:47:09;3.70;99.90
37594;DHT22;23441;50.856;6.076;2022-11-20T01:49:47;3.70;99.90
37594;DHT22;23441;50.856;6.076;2022-11-20T01:52:20;3.70;99.90
37594;DHT22;23441;50.856;6.076;2022-11-20T01:55:08;3.80;99.90
37594;DHT22;23441;50.856;6.076;2022-11-20T01:57:36;3.80;99.90
37594;DHT22;23441;50.856;6.076;2022-11-20T02:00:11;3.80;99.90
37594;DHT22;23441;50.856;6.076;2022-11-20T02:02:39;3.80;99.90
37594;DHT22;23441;50.856;6.076;2022-11-20T02:05:21;3.80;99.90
37594;DHT22;23441;50.856;6.076;2022-11-20T02:07:49;3.80;99.90
37594;DHT22;23441;50.856;6.076;2022-11-20T02:10:15;3.80;99.90
37594;DHT22;23441;50.856;6.076;2022-11-20T02:12:41;3.80;99.90
37594;DHT22;23441;50.856;6.076;2022-11-20T02:15:25;3.80;99.90
37594;DHT22;23441;50.856;6.076;2022-11-20T02:17:51;3.80;99.90
37594;DHT22;23441;50.856;6.076;2022-11-20T02:20:18;3.80;99.90
37594;DHT22;23441;50.856;6.076;2022-11-20T02:23:16;3.80;99.90
37594;DHT22;23441;50.856;6.076;2022-11-20T02:25:43;3.80;99.90
37594;DHT22;23441;50.856;6.076;2022-11-20T02:28:11;3.80;99.90
37594;DHT22;23441;50.856;6.076;2022-11-20T02:30:37;3.80;99.90
37594;DHT22;23441;50.856;6.076;2022-11-20T02:33:02;3.80;99.90
37594;DHT22;23441;50.856;6.076;2022-11-20T02:37:56;3.80;99.90
37594;DHT22;23441;50.856;6.076;2022-11-20T02:40:22;3.80;99.90
37594;DHT22;23441;50.856;6.076;2022-11-20T02:42:55;3.80;99.90
37594;DHT22;23441;50.856;6.076;2022-11-20T02:45:21;3.80;99.90
37594;DHT22;23441;50.856;6.076;2022-11-20T02:47:48;3.80;99.90
37594;DHT22;23441;50.856;6.076;2022-11-20T02:50:14;3.80;99.90
37594;DHT22;23441;50.856;6.076;2022-11-20T02:52:40;3.90;99.90
37594;DHT22;23441;50.856;6.076;2022-11-20T02:55:07;3.90;99.90
37594;DHT22;23441;50.856;6.076;2022-11-20T02:57:33;3.90;99.90
37594;DHT22;23441;50.856;6.076;2022-11-20T02:59:59;3.90;99.90
37594;DHT22;23441;50.856;6.076;2022-11-20T03:02:25;3.90;99.90
37594;DHT22;23441;50.856;6.076;2022-11-20T03:04:51;3.90;99.90
37594;DHT22;23441;50.856;6.076;2022-11-20T03:07:16;3.90;99.90
37594;DHT22;23441;50.856;6.076;2022-11-20T03:09:42;3.90;99.90
37594;DHT22;23441;50.856;6.076;2022-11-20T03:12:08;3.80;99.90
37594;DHT22;23441;50.856;6.076;2022-11-20T03:14:34;3.90;99.90
37594;DHT22;23441;50.856;6.076;2022-11-20T03:17:00;3.80;99.90
37594;DHT22;23441;50.856;6.076;2022-11-20T03:19:26;3.90;99.90
37594;DHT22;23441;50.856;6.076;2022-11-20T03:21:52;4.00;99.90
37594;DHT22;23441;50.856;6.076;2022-11-20T03:24:18;4.00;99.90
37594;DHT22;23441;50.856;6.076;2022-11-20T03:26:44;3.90;99.90
37594;DHT22;23441;50.856;6.076;2022-11-20T03:29:09;4.00;99.90
37594;DHT22;23441;50.856;6.076;2022-11-20T03:31:37;4.00;99.90
37594;DHT22;23441;50.856;6.076;2022-11-20T03:34:06;3.90;99.90
37594;DHT22;23441;50.856;6.076;2022-11-20T03:36:33;3.90;99.90
37594;DHT22;23441;50.856;6.076;2022-11-20T03:38:59;4.00;99.90
37594;DHT22;23441;50.856;6.076;2022-11-20T03:41:28;4.00;99.90
37594;DHT22;23441;50.856;6.076;2022-11-20T03:43:56;4.00;99.90
37594;DHT22;23441;50.856;6.076;2022-11-20T03:46:23;3.90;99.90
37594;DHT22;23441;50.856;6.076;2022-11-20T03:48:49;3.90;99.90
37594;DHT22;23441;50.856;6.076;2022-11-20T03:51:18;3.90;99.90
37594;DHT22;23441;50.856;6.076;2022-11-20T03:53:46;3.80;99.90
37594;DHT22;23441;50.856;6.076;2022-11-20T03:56:14;3.90;99.90
37594;DHT22;23441;50.856;6.076;2022-11-20T03:58:40;4.00;99.90
37594;DHT22;23441;50.856;6.076;2022-11-20T04:01:18;4.00;99.90
37594;DHT22;23441;50.856;6.076;2022-11-20T04:03:44;4.00;99.90
37594;DHT22;23441;50.856;6.076;2022-11-20T04:08:50;3.90;99.90
37594;DHT22;23441;50.856;6.076;2022-11-20T04:11:36;3.80;99.90
37594;DHT22;23441;50.856;6.076;2022-11-20T04:14:04;3.80;99.90
37594;DHT22;23441;50.856;6.076;2022-11-20T04:16:36;3.70;99.90
37594;DHT22;23441;50.856;6.076;2022-11-20T04:19:04;3.60;99.90
37594;DHT22;23441;50.856;6.076;2022-11-20T04:21:30;3.50;99.90
37594;DHT22;23441;50.856;6.076;2022-11-20T04:23:57;3.50;99.90
37594;DHT22;23441;50.856;6.076;2022-11-20T04:26:25;3.50;99.90
37594;DHT22;23441;50.856;6.076;2022-11-20T04:28:51;3.50;99.90
37594;DHT22;23441;50.856;6.076;2022-11-20T04:31:20;3.50;99.90
37594;DHT22;23441;50.856;6.076;2022-11-20T04:33:46;3.50;99.90
37594;DHT22;23441;50.856;6.076;2022-11-20T04:36:15;3.50;99.90
37594;DHT22;23441;50.856;6.076;2022-11-20T04:38:41;3.50;99.90
37594;DHT22;23441;50.856;6.076;2022-11-20T04:41:16;3.50;99.90
37594;DHT22;23441;50.856;6.076;2022-11-20T04:43:49;3.40;99.90
37594;DHT22;23441;50.856;6.076;2022-11-20T04:46:16;3.30;99.90
37594;DHT22;23441;50.856;6.076;2022-11-20T04:48:42;3.40;99.90
37594;DHT22;23441;50.856;6.076;2022-11-20T04:51:08;3.40;99.90
37594;DHT22;23441;50.856;6.076;2022-11-20T04:53:34;3.30;99.90
37594;DHT22;23441;50.856;6.076;2022-11-20T04:56:05;3.30;99.90
37594;DHT22;23441;50.856;6.076;2022-11-20T04:58:31;3.40;99.90
37594;DHT22;23441;50.856;6.076;2022-11-20T05:01:13;3.30;99.90
37594;DHT22;23441;50.856;6.076;2022-11-20T05:03:41;3.30;99.90
37594;DHT22;23441;50.856;6.076;2022-11-20T05:06:08;3.40;99.90
37594;DHT22;23441;50.856;6.076;2022-11-20T05:08:34;3.40;99.90
37594;DHT22;23441;50.856;6.076;2022-11-20T05:13:27;3.50;99.90
37594;DHT22;23441;50.856;6.076;2022-11-20T05:15:53;3.50;99.90
37594;DHT22;23441;50.856;6.076;2022-11-20T05:18:19;3.40;99.90
37594;DHT22;23441;50.856;6.076;2022-11-20T05:20:44;3.40;99.90
37594;DHT22;23441;50.856;6.076;2022-11-20T05:23:10;3.40;99.90
37594;DHT22;23441;50.856;6.076;2022-11-20T05:25:36;3.40;99.90
37594;DHT22;23441;50.856;6.076;2022-11-20T05:28:02;3.50;99.90
37594;DHT22;23441;50.856;6.076;2022-11-20T05:30:28;3.40;99.90
37594;DHT22;23441;50.856;6.076;2022-11-20T05:32:54;3.40;99.90
37594;DHT22;23441;50.856;6.076;2022-11-20T05:35:19;3.40;99.90
37594;DHT22;23441;50.856;6.076;2022-11-20T05:37:45;3.40;99.90
37594;DHT22;23441;50.856;6.076;2022-11-20T05:40:11;3.20;99.90
37594;DHT22;23441;50.856;6.076;2022-11-20T05:42:37;3.30;99.90
37594;DHT22;23441;50.856;6.076;2022-11-20T05:45:04;3.30;99.90
37594;DHT22;23441;50.856;6.076;2022-11-20T05:47:34;3.20;99.90
37594;DHT22;23441;50.856;6.076;2022-11-20T05:50:00;3.30;99.90
37594;DHT22;23441;50.856;6.076;2022-11-20T05:52:29;3.30;99.90
37594;DHT22;23441;50.856;6.076;2022-11-20T05:54:56;3.30;99.90
37594;DHT22;23441;50.856;6.076;2022-11-20T05:57:21;3.20;99.90
37594;DHT22;23441;50.856;6.076;2022-11-20T05:59:47;3.20;99.90
37594;DHT22;23441;50.856;6.076;2022-11-20T06:02:13;3.20;99.90
37594;DHT22;23441;50.856;6.076;2022-11-20T06:04:39;3.20;99.90
37594;DHT22;23441;50.856;6.076;2022-11-20T06:07:05;3.20;99.90
37594;DHT22;23441;50.856;6.076;2022-11-20T06:09:32;3.20;99.90
37594;DHT22;23441;50.856;6.076;2022-11-20T06:11:58;3.20;99.90
37594;DHT22;23441;50.856;6.076;2022-11-20T06:14:23;3.20;99.90
37594;DHT22;23441;50.856;6.076;2022-11-20T06:16:49;3.20;99.90
37594;DHT22;23441;50.856;6.076;2022-11-20T06:19:15;3.20;99.90
37594;DHT22;23441;50.856;6.076;2022-11-20T06:21:41;3.20;99.90
37594;DHT22;23441;50.856;6.076;2022-11-20T06:24:08;3.10;99.90
37594;DHT22;23441;50.856;6.076;2022-11-20T06:26:34;3.10;99.90
37594;DHT22;23441;50.856;6.076;2022-11-20T06:29:00;3.10;99.90
37594;DHT22;23441;50.856;6.076;2022-11-20T06:31:26;3.10;99.90
37594;DHT22;23441;50.856;6.076;2022-11-20T06:33:52;3.20;99.90
37594;DHT22;23441;50.856;6.076;2022-11-20T06:36:20;3.20;99.90
37594;DHT22;23441;50.856;6.076;2022-11-20T06:38:47;3.20;99.90
37594;DHT22;23441;50.856;6.076;2022-11-20T06:41:16;3.20;99.90
37594;DHT22;23441;50.856;6.076;2022-11-20T06:43:42;3.20;99.90
37594;DHT22;23441;50.856;6.076;2022-11-20T06:46:10;3.20;99.90
37594;DHT22;23441;50.856;6.076;2022-11-20T06:48:37;3.20;99.90
37594;DHT22;23441;50.856;6.076;2022-11-20T06:51:04;3.20;99.90
37594;DHT22;23441;50.856;6.076;2022-11-20T06:53:30;3.20;99.90
37594;DHT22;23441;50.856;6.076;2022-11-20T06:55:56;3.30;99.90
37594;DHT22;23441;50.856;6.076;2022-11-20T06:58:25;3.30;99.90
37594;DHT22;23441;50.856;6.076;2022-11-20T07:00:52;3.20;99.90
37594;DHT22;23441;50.856;6.076;2022-11-20T07:03:17;3.20;99.90
37594;DHT22;23441;50.856;6.076;2022-11-20T07:05:43;3.10;99.90
37594;DHT22;23441;50.856;6.076;2022-11-20T07:08:11;3.20;99.90
37594;DHT22;23441;50.856;6.076;2022-11-20T07:10:37;3.30;99.90
37594;DHT22;23441;50.856;6.076;2022-11-20T07:13:03;3.30;99.90
37594;DHT22;23441;50.856;6.076;2022-11-20T07:15:29;3.30;99.90
37594;DHT22;23441;50.856;6.076;2022-11-20T07:17:58;3.40;99.90
37594;DHT22;23441;50.856;6.076;2022-11-20T07:20:25;3.30;99.90
37594;DHT22;23441;50.856;6.076;2022-11-20T07:22:55;3.30;99.90
37594;DHT22;23441;50.856;6.076;2022-11-20T07:25:22;3.40;99.90
37594;DHT22;23441;50.856;6.076;2022-11-20T07:27:47;3.40;99.90
37594;DHT22;23441;50.856;6.076;2022-11-20T07:30:15;3.40;99.90
37594;DHT22;23441;50.856;6.076;2022-11-20T07:32:40;3.40;99.90
37594;DHT22;23441;50.856;6.076;2022-11-20T07:35:06;3.50;99.90
37594;DHT22;23441;50.856;6.076;2022-11-20T07:37:35;3.40;99.90
37594;DHT22;23441;50.856;6.076;2022-11-20T07:40:02;3.50;99.90
37594;DHT22;23441;50.856;6.076;2022-11-20T07:42:27;3.50;99.90
37594;DHT22;23441;50.856;6.076;2022-11-20T07:44:53;3.50;99.90
37594;DHT22;23441;50.856;6.076;2022-11-20T07:47:19;3.50;99.90
37594;DHT22;23441;50.856;6.076;2022-11-20T07:49:45;3.50;99.90
37594;DHT22;23441;50.856;6.076;2022-11-20T07:52:10;3.50;99.90
37594;DHT22;23441;50.856;6.076;2022-11-20T07:54:36;3.50;99.90
37594;DHT22;23441;50.856;6.076;2022-11-20T07:57:03;3.40;99.90
37594;DHT22;23441;50.856;6.076;2022-11-20T07:59:28;3.50;99.90
37594;DHT22;23441;50.856;6.076;2022-11-20T08:01:55;3.50;99.90
37594;DHT22;23441;50.856;6.076;2022-11-20T08:04:21;3.60;99.90
37594;DHT22;23441;50.856;6.076;2022-11-20T08:06:47;3.50;99.90
37594;DHT22;23441;50.856;6.076;2022-11-20T08:09:12;3.50;99.90
37594;DHT22;23441;50.856;6.076;2022-11-20T08:11:38;3.50;99.90
37594;DHT22;23441;50.856;6.076;2022-11-20T08:14:23;3.50;99.90
37594;DHT22;23441;50.856;6.076;2022-11-20T08:16:49;3.60;99.90
37594;DHT22;23441;50.856;6.076;2022-11-20T08:19:17;3.70;99.90
37594;DHT22;23441;50.856;6.076;2022-11-20T08:21:44;3.80;99.90
37594;DHT22;23441;50.856;6.076;2022-11-20T08:24:10;3.90;99.90
37594;DHT22;23441;50.856;6.076;2022-11-20T08:26:37;4.00;99.90
37594;DHT22;23441;50.856;6.076;2022-11-20T08:29:04;4.00;99.90
37594;DHT22;23441;50.856;6.076;2022-11-20T08:31:30;4.10;99.90
37594;DHT22;23441;50.856;6.076;2022-11-20T08:33:56;4.00;99.90
37594;DHT22;23441;50.856;6.076;2022-11-20T08:36:23;4.10;99.90
37594;DHT22;23441;50.856;6.076;2022-11-20T08:38:51;4.10;99.90
37594;DHT22;23441;50.856;6.076;2022-11-20T08:41:17;4.10;99.90
37594;DHT22;23441;50.856;6.076;2022-11-20T08:43:51;4.20;99.90
37594;DHT22;23441;50.856;6.076;2022-11-20T08:46:17;4.30;99.90
37594;DHT22;23441;50.856;6.076;2022-11-20T08:48:43;4.30;99.90
37594;DHT22;23441;50.856;6.076;2022-11-20T08:51:10;4.40;99.90
37594;DHT22;23441;50.856;6.076;2022-11-20T08:53:36;4.50;99.90
37594;DHT22;23441;50.856;6.076;2022-11-20T08:56:02;4.60;99.90
37594;DHT22;23441;50.856;6.076;2022-11-20T08:58:28;4.60;99.90
37594;DHT22;23441;50.856;6.076;2022-11-20T09:00:54;4.70;99.90
37594;DHT22;23441;50.856;6.076;2022-11-20T09:03:20;4.80;99.90
37594;DHT22;23441;50.856;6.076;2022-11-20T09:05:46;4.80;99.90
37594;DHT22;23441;50.856;6.076;2022-11-20T09:08:11;4.90;99.90
37594;DHT22;23441;50.856;6.076;2022-11-20T09:10:37;4.80;99.90
37594;DHT22;23441;50.856;6.076;2022-11-20T09:13:06;4.80;99.90
37594;DHT22;23441;50.856;6.076;2022-11-20T09:15:33;4.80;99.90
37594;DHT22;23441;50.856;6.076;2022-11-20T09:18:02;4.90;99.90
37594;DHT22;23441;50.856;6.076;2022-11-20T09:20:31;4.90;99.90
37594;DHT22;23441;50.856;6.076;2022-11-20T09:22:57;5.00;99.90
37594;DHT22;23441;50.856;6.076;2022-11-20T09:25:23;5.00;99.90
37594;DHT22;23441;50.856;6.076;2022-11-20T09:27:57;5.10;99.90
37594;DHT22;23441;50.856;6.076;2022-11-20T09:30:23;5.00;99.90
37594;DHT22;23441;50.856;6.076;2022-11-20T09:32:50;4.90;99.90
37594;DHT22;23441;50.856;6.076;2022-11-20T09:35:16;5.00;99.90
37594;DHT22;23441;50.856;6.076;2022-11-20T09:37:43;5.10;99.90
37594;DHT22;23441;50.856;6.076;2022-11-20T09:40:28;5.00;99.90
37594;DHT22;23441;50.856;6.076;2022-11-20T09:42:59;5.00;99.90
37594;DHT22;23441;50.856;6.076;2022-11-20T09:48:09;5.10;99.90
37594;DHT22;23441;50.856;6.076;2022-11-20T09:56:14;5.20;99.90
37594;DHT22;23441;50.856;6.076;2022-11-20T09:58:42;5.30;99.90
37594;DHT22;23441;50.856;6.076;2022-11-20T10:01:21;5.30;99.90
37594;DHT22;23441;50.856;6.076;2022-11-20T10:04:02;5.40;99.90
37594;DHT22;23441;50.856;6.076;2022-11-20T10:07:11;5.50;99.90
37594;DHT22;23441;50.856;6.076;2022-11-20T10:09:40;5.60;99.90
37594;DHT22;23441;50.856;6.076;2022-11-20T10:12:55;5.70;99.90
37594;DHT22;23441;50.856;6.076;2022-11-20T10:18:23;5.70;99.90
37594;DHT22;23441;50.856;6.076;2022-11-20T10:23:37;5.80;99.90
37594;DHT22;23441;50.856;6.076;2022-11-20T10:26:24;5.80;99.90
37594;DHT22;23441;50.856;6.076;2022-11-20T10:29:15;5.80;99.90
37594;DHT22;23441;50.856;6.076;2022-11-20T10:32:00;5.80;99.90
37594;DHT22;23441;50.856;6.076;2022-11-20T10:37:26;5.80;99.90
37594;DHT22;23441;50.856;6.076;2022-11-20T10:42:57;6.00;99.90
37594;DHT22;23441;50.856;6.076;2022-11-20T10:47:54;6.20;99.90
37594;DHT22;23441;50.856;6.076;2022-11-20T10:50:22;6.20;99.90
37594;DHT22;23441;50.856;6.076;2022-11-20T10:55:50;6.30;99.90
37594;DHT22;23441;50.856;6.076;2022-11-20T11:01:15;6.30;99.90
37594;DHT22;23441;50.856;6.076;2022-11-20T11:03:42;6.40;99.90
37594;DHT22;23441;50.856;6.076;2022-11-20T11:08:47;6.50;99.90
37594;DHT22;23441;50.856;6.076;2022-11-20T11:11:28;6.60;99.90
37594;DHT22;23441;50.856;6.076;2022-11-20T11:14:08;6.70;99.90
37594;DHT22;23441;50.856;6.076;2022-11-20T11:16:34;6.90;99.90
37594;DHT22;23441;50.856;6.076;2022-11-20T11:19:11;6.90;99.90
37594;DHT22;23441;50.856;6.076;2022-11-20T11:21:37;7.10;99.90
37594;DHT22;23441;50.856;6.076;2022-11-20T11:24:23;7.20;99.90
37594;DHT22;23441;50.856;6.076;2022-11-20T11:27:15;7.40;99.90
37594;DHT22;23441;50.856;6.076;2022-11-20T11:29:43;7.40;99.90
37594;DHT22;23441;50.856;6.076;2022-11-20T11:32:20;7.50;99.90
37594;DHT22;23441;50.856;6.076;2022-11-20T11:35:20;7.60;99.90
37594;DHT22;23441;50.856;6.076;2022-11-20T11:37:46;7.60;99.90
37594;DHT22;23441;50.856;6.076;2022-11-20T11:40:14;7.70;99.90
37594;DHT22;23441;50.856;6.076;2022-11-20T11:42:56;7.80;99.90
37594;DHT22;23441;50.856;6.076;2022-11-20T11:45:22;7.80;99.90
37594;DHT22;23441;50.856;6.076;2022-11-20T11:47:49;7.90;99.90
37594;DHT22;23441;50.856;6.076;2022-11-20T12:00:41;8.10;99.90
37594;DHT22;23441;50.856;6.076;2022-11-20T12:03:24;8.20;99.90
37594;DHT22;23441;50.856;6.076;2022-11-20T12:05:59;8.20;99.90
37594;DHT22;23441;50.856;6.076;2022-11-20T12:08:46;8.30;99.90
37594;DHT22;23441;50.856;6.076;2022-11-20T12:11:33;8.40;99.90
37594;DHT22;23441;50.856;6.076;2022-11-20T12:14:17;8.40;99.90
37594;DHT22;23441;50.856;6.076;2022-11-20T12:16:50;8.40;99.90
37594;DHT22;23441;50.856;6.076;2022-11-20T12:19:18;8.40;99.90
37594;DHT22;23441;50.856;6.076;2022-11-20T12:30:18;8.40;99.90
37594;DHT22;23441;50.856;6.076;2022-11-20T12:42:34;8.40;99.90
37594;DHT22;23441;50.856;6.076;2022-11-20T12:55:47;8.30;99.90
37594;DHT22;23441;50.856;6.076;2022-11-20T12:58:35;8.30;99.90
37594;DHT22;23441;50.856;6.076;2022-11-20T13:06:52;8.60;99.90
37594;DHT22;23441;50.856;6.076;2022-11-20T13:09:20;8.50;99.90
37594;DHT22;23441;50.856;6.076;2022-11-20T13:17:53;8.30;99.90
37594;DHT22;23441;50.856;6.076;2022-11-20T13:20:20;8.30;99.90
37594;DHT22;23441;50.856;6.076;2022-11-20T13:22:46;8.30;99.90
37594;DHT22;23441;50.856;6.076;2022-11-20T13:27:50;8.30;99.90
37594;DHT22;23441;50.856;6.076;2022-11-20T13:30:21;8.30;99.90
37594;DHT22;23441;50.856;6.076;2022-11-20T13:32:53;8.40;99.90
37594;DHT22;23441;50.856;6.076;2022-11-20T13:38:11;8.30;99.90
37594;DHT22;23441;50.856;6.076;2022-11-20T13:40:50;8.30;99.90
37594;DHT22;23441;50.856;6.076;2022-11-20T13:43:34;8.20;99.90
37594;DHT22;23441;50.856;6.076;2022-11-20T13:46:05;8.20;99.90
37594;DHT22;23441;50.856;6.076;2022-11-20T13:48:45;8.20;99.90
37594;DHT22;23441;50.856;6.076;2022-11-20T14:02:15;8.10;99.90
37594;DHT22;23441;50.856;6.076;2022-11-20T14:04:47;8.10;99.90
37594;DHT22;23441;50.856;6.076;2022-11-20T14:07:14;8.00;99.90
37594;DHT22;23441;50.856;6.076;2022-11-20T14:09:50;7.90;99.90
37594;DHT22;23441;50.856;6.076;2022-11-20T14:12:20;7.90;99.90
37594;DHT22;23441;50.856;6.076;2022-11-20T14:14:51;7.80;99.90
37594;DHT22;23441;50.856;6.076;2022-11-20T14:19:51;7.70;99.90
37594;DHT22;23441;50.856;6.076;2022-11-20T14:22:22;7.60;99.90
37594;DHT22;23441;50.856;6.076;2022-11-20T14:25:00;7.60;99.90
37594;DHT22;23441;50.856;6.076;2022-11-20T14:27:26;7.50;99.90
37594;DHT22;23441;50.856;6.076;2022-11-20T14:29:52;7.40;99.90
37594;DHT22;23441;50.856;6.076;2022-11-20T14:32:21;7.30;99.90
37594;DHT22;23441;50.856;6.076;2022-11-20T14:34:50;7.20;99.90
37594;DHT22;23441;50.856;6.076;2022-11-20T14:37:23;7.10;99.90
37594;DHT22;23441;50.856;6.076;2022-11-20T14:39:55;7.10;99.90
37594;DHT22;23441;50.856;6.076;2022-11-20T14:42:23;7.00;99.90
37594;DHT22;23441;50.856;6.076;2022-11-20T14:44:51;7.00;99.90
37594;DHT22;23441;50.856;6.076;2022-11-20T14:47:23;7.00;99.90
37594;DHT22;23441;50.856;6.076;2022-11-20T14:49:50;7.00;99.90
37594;DHT22;23441;50.856;6.076;2022-11-20T14:52:25;6.90;99.90
37594;DHT22;23441;50.856;6.076;2022-11-20T14:54:56;6.90;99.90
37594;DHT22;23441;50.856;6.076;2022-11-20T14:57:29;6.90;99.90
37594;DHT22;23441;50.856;6.076;2022-11-20T15:02:30;6.80;99.90
37594;DHT22;23441;50.856;6.076;2022-11-20T15:04:58;6.70;99.90
37594;DHT22;23441;50.856;6.076;2022-11-20T15:07:30;6.70;99.90
37594;DHT22;23441;50.856;6.076;2022-11-20T15:10:08;6.70;99.90
37594;DHT22;23441;50.856;6.076;2022-11-20T15:12:55;6.70;99.90
37594;DHT22;23441;50.856;6.076;2022-11-20T15:18:16;6.60;99.90
37594;DHT22;23441;50.856;6.076;2022-11-20T15:20:42;6.60;99.90
37594;DHT22;23441;50.856;6.076;2022-11-20T15:23:14;6.60;99.90
37594;DHT22;23441;50.856;6.076;2022-11-20T15:25:40;6.60;99.90
37594;DHT22;23441;50.856;6.076;2022-11-20T15:28:21;6.60;99.90
37594;DHT22;23441;50.856;6.076;2022-11-20T15:30:49;6.50;99.90
37594;DHT22;23441;50.856;6.076;2022-11-20T15:33:16;6.50;99.90
37594;DHT22;23441;50.856;6.076;2022-11-20T15:35:42;6.50;99.90
37594;DHT22;23441;50.856;6.076;2022-11-20T15:38:09;6.50;99.90
37594;DHT22;23441;50.856;6.076;2022-11-20T15:40:35;6.50;99.90
37594;DHT22;23441;50.856;6.076;2022-11-20T15:43:02;6.50;99.90
37594;DHT22;23441;50.856;6.076;2022-11-20T15:45:31;6.50;99.90
37594;DHT22;23441;50.856;6.076;2022-11-20T15:47:59;6.40;99.90
37594;DHT22;23441;50.856;6.076;2022-11-20T15:50:36;6.50;99.90
37594;DHT22;23441;50.856;6.076;2022-11-20T15:53:03;6.40;99.90
37594;DHT22;23441;50.856;6.076;2022-11-20T15:55:30;6.40;99.90
37594;DHT22;23441;50.856;6.076;2022-11-20T15:57:56;6.40;99.90
37594;DHT22;23441;50.856;6.076;2022-11-20T16:00:22;6.40;99.90
37594;DHT22;23441;50.856;6.076;2022-11-20T16:02:48;6.40;99.90
37594;DHT22;23441;50.856;6.076;2022-11-20T16:05:14;6.40;99.90
37594;DHT22;23441;50.856;6.076;2022-11-20T16:07:40;6.40;99.90
37594;DHT22;23441;50.856;6.076;2022-11-20T16:10:06;6.40;99.90
37594;DHT22;23441;50.856;6.076;2022-11-20T16:12:32;6.40;99.90
37594;DHT22;23441;50.856;6.076;2022-11-20T16:15:17;6.40;99.90
37594;DHT22;23441;50.856;6.076;2022-11-20T16:18:01;6.40;99.90
37594;DHT22;23441;50.856;6.076;2022-11-20T16:20:27;6.50;99.90
37594;DHT22;23441;50.856;6.076;2022-11-20T16:22:52;6.50;99.90
37594;DHT22;23441;50.856;6.076;2022-11-20T16:25:18;6.50;99.90
37594;DHT22;23441;50.856;6.076;2022-11-20T16:27:44;6.50;99.90
37594;DHT22;23441;50.856;6.076;2022-11-20T16:30:10;6.50;99.90
37594;DHT22;23441;50.856;6.076;2022-11-20T16:32:36;6.50;99.90
37594;DHT22;23441;50.856;6.076;2022-11-20T16:35:04;6.60;99.90
37594;DHT22;23441;50.856;6.076;2022-11-20T16:37:30;6.60;99.90
37594;DHT22;23441;50.856;6.076;2022-11-20T16:39:56;6.70;99.90
37594;DHT22;23441;50.856;6.076;2022-11-20T16:42:22;6.70;99.90
37594;DHT22;23441;50.856;6.076;2022-11-20T16:44:48;6.70;99.90
37594;DHT22;23441;50.856;6.076;2022-11-20T16:47:13;6.70;99.90
37594;DHT22;23441;50.856;6.076;2022-11-20T16:49:39;6.70;99.90
37594;DHT22;23441;50.856;6.076;2022-11-20T16:52:05;6.70;99.90
37594;DHT22;23441;50.856;6.076;2022-11-20T16:54:31;6.70;99.90
37594;DHT22;23441;50.856;6.076;2022-11-20T16:56:56;6.80;99.90
37594;DHT22;23441;50.856;6.076;2022-11-20T16:59:22;6.80;99.90
37594;DHT22;23441;50.856;6.076;2022-11-20T17:01:48;6.80;99.90
37594;DHT22;23441;50.856;6.076;2022-11-20T17:04:14;6.80;99.90
37594;DHT22;23441;50.856;6.076;2022-11-20T17:06:42;6.80;99.90
37594;DHT22;23441;50.856;6.076;2022-11-20T17:09:12;6.80;99.90
37594;DHT22;23441;50.856;6.076;2022-11-20T17:11:39;6.90;99.90
37594;DHT22;23441;50.856;6.076;2022-11-20T17:14:05;6.90;99.90
37594;DHT22;23441;50.856;6.076;2022-11-20T17:16:32;7.00;99.90
37594;DHT22;23441;50.856;6.076;2022-11-20T17:18:58;7.00;99.90
37594;DHT22;23441;50.856;6.076;2022-11-20T17:21:25;7.10;99.90
37594;DHT22;23441;50.856;6.076;2022-11-20T17:23:51;7.10;99.90
37594;DHT22;23441;50.856;6.076;2022-11-20T17:26:19;7.20;99.90
37594;DHT22;23441;50.856;6.076;2022-11-20T17:28:53;7.10;99.90
37594;DHT22;23441;50.856;6.076;2022-11-20T17:31:19;7.10;99.90
37594;DHT22;23441;50.856;6.076;2022-11-20T17:33:46;7.20;99.90
37594;DHT22;23441;50.856;6.076;2022-11-20T17:36:14;7.20;99.90
37594;DHT22;23441;50.856;6.076;2022-11-20T17:38:40;7.20;99.90
37594;DHT22;23441;50.856;6.076;2022-11-20T17:41:14;7.20;99.90
37594;DHT22;23441;50.856;6.076;2022-11-20T17:43:41;7.30;99.90
37594;DHT22;23441;50.856;6.076;2022-11-20T17:48:38;7.40;99.90
37594;DHT22;23441;50.856;6.076;2022-11-20T17:51:07;7.40;99.90
37594;DHT22;23441;50.856;6.076;2022-11-20T17:53:36;7.40;99.90